Contact Us:
Email: info@sawbill.com
Phone: (218)663-7150
Fax: (218)663-7980
Mail: 4620 Sawbill Trail
Box 2129
Tofte, MN 55615


Powered by
Movable Type 3.15
 
Sawbill Weather History Archives: March 2013
Current Sawbill Weather History | « February 2013 | April 2013 »


Date

High
Temperature

Low
Temperature

Barometric
Pressure

Relative
Humidity 7AM

9 AM
Temperature

Moisture

Snow

3/31/13 29 12 30.33 48% 12 0 Trace
3/30/13 47 29 29.91 60% 33 0 Trace
3/29/13 46 29 30.18 83% 34 .25"
3/28/13 41 13 30.53 44% 36 0
3/26/13 35 24 30.59 69% 28 Trace Trace
3/25/13 33 11 30.50 75% 26 Trace Trace
3/24/13 29 11 30.36 75% 20 Trace Trace
3/23/13 31 20 30.39 71% 21 0
3/22/13 33 14 30.42 75% 21 0
3/21/13 26 8 30.33 73% 17 0
3/20/13 15 7 30.27 50% 10 0
3/19/13 17 7 30.21 64% 7 .17" 2"
3/18/13 26 11 29.91 69% 12 .32" 5.5"
3/17/13 22 -4 29.94 79% 22 .08" 1"
3/16/13 16 -12 30.47 46% -4 0 Trace
3/15/13 20 4 30.30 41% 5 Trace Trace
3/14/13 36 2 30.33 60% 12 Trace Trace
3/13/13 27 -3 30.39 53% 1 0
3/12/13 19 8 30.47 51% 10 .09" 1"
3/11/13 22 10 30.06 68% 10 Trace Trace
3/10/13 28 16 29.92 86% 16 0
3/9/13 31 26 30.18 80% 28 .47" 3.5"
3/8/13 31 19 30.33 84% 26 Trace Trace
3/7/13 27 8 30.53 79% 19 0
3/6/13 22 9 30.62 58% 10 Trace Trace
3/5/13 22 10 30.56 63% 11 .08" 1"
3/4/13 25 1 30.47 48% 10 0
3/3/13 26 -11 30.39 40% 1 0
3/2/13 24 -11 30.39 39% -11 0
3/1/13 24 -9 30.56 35% -8 0
 


Home I Trip Planning I Rentals and Outfitting I Reservations I Campgrounds I Sawbill Store I Sawbill News I Contact

© 1997 - 2017, Sawbill Canoe Outfitters, Inc. I Privacy Policy